sensor_id;sensor_type;location;lat;lon;timestamp;P1;durP1;ratioP1;P2;durP2;ratioP2
29362;SDS011;16349;53.672;10.014;2023-09-08T00:01:04;5.77;;;5.30;;
29362;SDS011;16349;53.672;10.014;2023-09-08T00:03:34;6.63;;;5.50;;
29362;SDS011;16349;53.672;10.014;2023-09-08T00:06:01;7.20;;;5.83;;
29362;SDS011;16349;53.672;10.014;2023-09-08T00:08:29;7.47;;;6.73;;
29362;SDS011;16349;53.672;10.014;2023-09-08T00:10:56;6.40;;;5.63;;
29362;SDS011;16349;53.672;10.014;2023-09-08T00:13:23;5.70;;;5.27;;
29362;SDS011;16349;53.672;10.014;2023-09-08T00:15:50;5.80;;;5.30;;
29362;SDS011;16349;53.672;10.014;2023-09-08T00:18:16;6.03;;;5.50;;
29362;SDS011;16349;53.672;10.014;2023-09-08T00:20:45;5.80;;;5.30;;
29362;SDS011;16349;53.672;10.014;2023-09-08T00:23:11;6.57;;;5.93;;
29362;SDS011;16349;53.672;10.014;2023-09-08T00:25:38;5.60;;;5.10;;
29362;SDS011;16349;53.672;10.014;2023-09-08T00:28:06;5.90;;;5.37;;
29362;SDS011;16349;53.672;10.014;2023-09-08T00:30:33;6.03;;;5.53;;
29362;SDS011;16349;53.672;10.014;2023-09-08T00:33:00;5.43;;;4.93;;
29362;SDS011;16349;53.672;10.014;2023-09-08T00:35:27;6.33;;;5.80;;
29362;SDS011;16349;53.672;10.014;2023-09-08T00:37:56;6.27;;;5.67;;
29362;SDS011;16349;53.672;10.014;2023-09-08T00:40:23;6.27;;;5.77;;
29362;SDS011;16349;53.672;10.014;2023-09-08T00:42:50;5.40;;;4.90;;
29362;SDS011;16349;53.672;10.014;2023-09-08T00:45:17;6.17;;;5.70;;
29362;SDS011;16349;53.672;10.014;2023-09-08T00:47:44;6.70;;;5.90;;
29362;SDS011;16349;53.672;10.014;2023-09-08T00:50:11;6.17;;;5.63;;
29362;SDS011;16349;53.672;10.014;2023-09-08T00:52:39;6.10;;;5.63;;
29362;SDS011;16349;53.672;10.014;2023-09-08T00:55:08;5.40;;;4.93;;
29362;SDS011;16349;53.672;10.014;2023-09-08T00:57:35;6.53;;;5.27;;
29362;SDS011;16349;53.672;10.014;2023-09-08T01:00:02;6.03;;;5.50;;
29362;SDS011;16349;53.672;10.014;2023-09-08T01:02:31;5.83;;;5.27;;
29362;SDS011;16349;53.672;10.014;2023-09-08T01:04:58;5.70;;;5.20;;
29362;SDS011;16349;53.672;10.014;2023-09-08T01:07:27;7.07;;;5.10;;
29362;SDS011;16349;53.672;10.014;2023-09-08T01:09:58;6.27;;;5.17;;
29362;SDS011;16349;53.672;10.014;2023-09-08T01:12:30;5.57;;;5.00;;
29362;SDS011;16349;53.672;10.014;2023-09-08T01:14:58;5.80;;;4.77;;
29362;SDS011;16349;53.672;10.014;2023-09-08T01:17:27;6.10;;;5.60;;
29362;SDS011;16349;53.672;10.014;2023-09-08T01:19:59;6.23;;;5.63;;
29362;SDS011;16349;53.672;10.014;2023-09-08T01:22:37;9.57;;;5.60;;
29362;SDS011;16349;53.672;10.014;2023-09-08T01:25:19;5.97;;;5.47;;
29362;SDS011;16349;53.672;10.014;2023-09-08T01:27:48;6.00;;;5.40;;
29362;SDS011;16349;53.672;10.014;2023-09-08T01:30:17;5.47;;;4.90;;
29362;SDS011;16349;53.672;10.014;2023-09-08T01:32:46;5.73;;;5.23;;
29362;SDS011;16349;53.672;10.014;2023-09-08T01:35:14;5.27;;;4.80;;
29362;SDS011;16349;53.672;10.014;2023-09-08T01:37:42;5.60;;;5.10;;
29362;SDS011;16349;53.672;10.014;2023-09-08T01:40:11;6.37;;;5.70;;
29362;SDS011;16349;53.672;10.014;2023-09-08T01:42:40;5.30;;;4.90;;
29362;SDS011;16349;53.672;10.014;2023-09-08T01:45:08;6.23;;;5.63;;
29362;SDS011;16349;53.672;10.014;2023-09-08T01:47:35;5.70;;;5.30;;
29362;SDS011;16349;53.672;10.014;2023-09-08T01:50:01;7.07;;;6.17;;
29362;SDS011;16349;53.672;10.014;2023-09-08T01:52:28;8.43;;;4.90;;
29362;SDS011;16349;53.672;10.014;2023-09-08T01:54:55;5.97;;;5.37;;
29362;SDS011;16349;53.672;10.014;2023-09-08T01:57:22;6.43;;;5.20;;
29362;SDS011;16349;53.672;10.014;2023-09-08T01:59:50;7.30;;;5.30;;
29362;SDS011;16349;53.672;10.014;2023-09-08T02:02:17;5.63;;;5.07;;
29362;SDS011;16349;53.672;10.014;2023-09-08T02:04:44;6.27;;;5.67;;
29362;SDS011;16349;53.672;10.014;2023-09-08T02:07:11;5.90;;;5.37;;
29362;SDS011;16349;53.672;10.014;2023-09-08T02:09:37;6.00;;;5.50;;
29362;SDS011;16349;53.672;10.014;2023-09-08T02:12:05;5.53;;;5.03;;
29362;SDS011;16349;53.672;10.014;2023-09-08T02:14:32;5.67;;;5.13;;
29362;SDS011;16349;53.672;10.014;2023-09-08T02:17:02;6.13;;;5.53;;
29362;SDS011;16349;53.672;10.014;2023-09-08T02:19:29;6.73;;;5.40;;
29362;SDS011;16349;53.672;10.014;2023-09-08T02:21:56;9.03;;;5.00;;
29362;SDS011;16349;53.672;10.014;2023-09-08T02:24:23;6.30;;;5.40;;
29362;SDS011;16349;53.672;10.014;2023-09-08T02:26:49;5.47;;;4.97;;
29362;SDS011;16349;53.672;10.014;2023-09-08T02:29:19;5.90;;;5.10;;
29362;SDS011;16349;53.672;10.014;2023-09-08T02:31:48;6.10;;;5.50;;
29362;SDS011;16349;53.672;10.014;2023-09-08T02:34:17;6.60;;;5.80;;
29362;SDS011;16349;53.672;10.014;2023-09-08T02:36:44;6.40;;;5.80;;
29362;SDS011;16349;53.672;10.014;2023-09-08T02:39:13;6.20;;;5.60;;
29362;SDS011;16349;53.672;10.014;2023-09-08T02:41:40;6.07;;;5.27;;
29362;SDS011;16349;53.672;10.014;2023-09-08T02:44:07;5.90;;;5.37;;
29362;SDS011;16349;53.672;10.014;2023-09-08T02:46:33;6.10;;;5.50;;
29362;SDS011;16349;53.672;10.014;2023-09-08T02:49:00;5.87;;;5.30;;
29362;SDS011;16349;53.672;10.014;2023-09-08T02:51:29;5.53;;;5.10;;
29362;SDS011;16349;53.672;10.014;2023-09-08T02:53:55;5.77;;;5.30;;
29362;SDS011;16349;53.672;10.014;2023-09-08T02:56:22;6.13;;;5.60;;
29362;SDS011;16349;53.672;10.014;2023-09-08T02:58:51;6.47;;;5.63;;
29362;SDS011;16349;53.672;10.014;2023-09-08T03:01:18;6.60;;;5.10;;
29362;SDS011;16349;53.672;10.014;2023-09-08T03:03:47;9.13;;;5.53;;
29362;SDS011;16349;53.672;10.014;2023-09-08T03:06:17;7.47;;;5.13;;
29362;SDS011;16349;53.672;10.014;2023-09-08T03:08:46;5.50;;;5.00;;
29362;SDS011;16349;53.672;10.014;2023-09-08T03:11:13;6.27;;;5.73;;
29362;SDS011;16349;53.672;10.014;2023-09-08T03:13:40;6.47;;;5.87;;
29362;SDS011;16349;53.672;10.014;2023-09-08T03:16:09;7.67;;;6.03;;
29362;SDS011;16349;53.672;10.014;2023-09-08T03:18:37;6.57;;;5.97;;
29362;SDS011;16349;53.672;10.014;2023-09-08T03:21:08;6.00;;;5.50;;
29362;SDS011;16349;53.672;10.014;2023-09-08T03:23:37;7.13;;;5.73;;
29362;SDS011;16349;53.672;10.014;2023-09-08T03:26:05;6.13;;;5.37;;
29362;SDS011;16349;53.672;10.014;2023-09-08T03:28:33;6.57;;;5.37;;
29362;SDS011;16349;53.672;10.014;2023-09-08T03:31:00;6.10;;;5.60;;
29362;SDS011;16349;53.672;10.014;2023-09-08T03:33:29;6.77;;;5.60;;
29362;SDS011;16349;53.672;10.014;2023-09-08T03:35:56;6.40;;;5.80;;
29362;SDS011;16349;53.672;10.014;2023-09-08T03:38:23;6.17;;;5.67;;
29362;SDS011;16349;53.672;10.014;2023-09-08T03:40:51;6.33;;;5.73;;
29362;SDS011;16349;53.672;10.014;2023-09-08T03:43:20;6.43;;;5.23;;
29362;SDS011;16349;53.672;10.014;2023-09-08T03:45:47;6.33;;;5.70;;
29362;SDS011;16349;53.672;10.014;2023-09-08T03:48:13;6.37;;;5.47;;
29362;SDS011;16349;53.672;10.014;2023-09-08T03:50:40;6.23;;;5.73;;
29362;SDS011;16349;53.672;10.014;2023-09-08T03:53:11;6.03;;;5.53;;
29362;SDS011;16349;53.672;10.014;2023-09-08T03:55:38;7.53;;;6.17;;
29362;SDS011;16349;53.672;10.014;2023-09-08T03:58:05;5.97;;;5.53;;
29362;SDS011;16349;53.672;10.014;2023-09-08T04:00:33;7.93;;;6.20;;
29362;SDS011;16349;53.672;10.014;2023-09-08T04:03:00;7.43;;;6.07;;
29362;SDS011;16349;53.672;10.014;2023-09-08T04:05:28;6.47;;;5.90;;
29362;SDS011;16349;53.672;10.014;2023-09-08T04:07:55;6.80;;;6.30;;
29362;SDS011;16349;53.672;10.014;2023-09-08T04:10:22;7.80;;;6.13;;
29362;SDS011;16349;53.672;10.014;2023-09-08T04:12:49;9.20;;;5.93;;
29362;SDS011;16349;53.672;10.014;2023-09-08T04:15:16;8.47;;;6.53;;
29362;SDS011;16349;53.672;10.014;2023-09-08T04:17:44;7.23;;;6.53;;
29362;SDS011;16349;53.672;10.014;2023-09-08T04:20:11;6.73;;;6.00;;
29362;SDS011;16349;53.672;10.014;2023-09-08T04:22:40;7.47;;;6.20;;
29362;SDS011;16349;53.672;10.014;2023-09-08T04:25:07;8.97;;;6.60;;
29362;SDS011;16349;53.672;10.014;2023-09-08T04:27:35;6.60;;;6.00;;
29362;SDS011;16349;53.672;10.014;2023-09-08T04:30:02;9.50;;;6.20;;
29362;SDS011;16349;53.672;10.014;2023-09-08T04:32:30;6.80;;;6.30;;
29362;SDS011;16349;53.672;10.014;2023-09-08T04:34:58;7.87;;;7.03;;
29362;SDS011;16349;53.672;10.014;2023-09-08T04:37:25;7.97;;;7.03;;
29362;SDS011;16349;53.672;10.014;2023-09-08T04:39:52;7.07;;;6.43;;
29362;SDS011;16349;53.672;10.014;2023-09-08T04:42:19;10.07;;;6.57;;
29362;SDS011;16349;53.672;10.014;2023-09-08T04:44:46;8.60;;;6.70;;
29362;SDS011;16349;53.672;10.014;2023-09-08T04:47:13;6.27;;;5.77;;
29362;SDS011;16349;53.672;10.014;2023-09-08T04:49:40;7.93;;;6.77;;
29362;SDS011;16349;53.672;10.014;2023-09-08T04:52:10;9.30;;;6.60;;
29362;SDS011;16349;53.672;10.014;2023-09-08T04:54:38;7.30;;;6.60;;
29362;SDS011;16349;53.672;10.014;2023-09-08T04:57:05;8.30;;;7.40;;
29362;SDS011;16349;53.672;10.014;2023-09-08T04:59:32;10.10;;;7.70;;
29362;SDS011;16349;53.672;10.014;2023-09-08T05:01:59;8.30;;;7.60;;
29362;SDS011;16349;53.672;10.014;2023-09-08T05:04:25;7.87;;;7.20;;
29362;SDS011;16349;53.672;10.014;2023-09-08T05:06:52;7.93;;;7.23;;
29362;SDS011;16349;53.672;10.014;2023-09-08T05:09:23;8.03;;;7.43;;
29362;SDS011;16349;53.672;10.014;2023-09-08T05:11:50;8.43;;;7.63;;
29362;SDS011;16349;53.672;10.014;2023-09-08T05:14:17;8.03;;;6.53;;
29362;SDS011;16349;53.672;10.014;2023-09-08T05:16:44;10.27;;;7.23;;
29362;SDS011;16349;53.672;10.014;2023-09-08T05:19:16;8.37;;;7.40;;
29362;SDS011;16349;53.672;10.014;2023-09-08T05:21:43;7.73;;;7.03;;
29362;SDS011;16349;53.672;10.014;2023-09-08T05:24:10;8.67;;;7.23;;
29362;SDS011;16349;53.672;10.014;2023-09-08T05:26:38;9.47;;;7.80;;
29362;SDS011;16349;53.672;10.014;2023-09-08T05:29:08;8.57;;;7.60;;
29362;SDS011;16349;53.672;10.014;2023-09-08T05:31:35;9.60;;;6.60;;
29362;SDS011;16349;53.672;10.014;2023-09-08T05:34:01;9.90;;;7.50;;
29362;SDS011;16349;53.672;10.014;2023-09-08T05:36:29;9.13;;;6.90;;
29362;SDS011;16349;53.672;10.014;2023-09-08T05:38:58;8.90;;;7.70;;
29362;SDS011;16349;53.672;10.014;2023-09-08T05:41:24;7.40;;;6.70;;
29362;SDS011;16349;53.672;10.014;2023-09-08T05:43:52;7.33;;;6.63;;
29362;SDS011;16349;53.672;10.014;2023-09-08T05:46:20;8.13;;;7.43;;
29362;SDS011;16349;53.672;10.014;2023-09-08T05:48:47;8.63;;;7.30;;
29362;SDS011;16349;53.672;10.014;2023-09-08T05:51:14;9.13;;;7.43;;
29362;SDS011;16349;53.672;10.014;2023-09-08T05:53:42;8.50;;;7.53;;
29362;SDS011;16349;53.672;10.014;2023-09-08T05:56:09;9.67;;;7.33;;
29362;SDS011;16349;53.672;10.014;2023-09-08T05:58:38;7.60;;;6.93;;
29362;SDS011;16349;53.672;10.014;2023-09-08T06:01:06;8.33;;;7.10;;
29362;SDS011;16349;53.672;10.014;2023-09-08T06:03:33;8.77;;;7.00;;
29362;SDS011;16349;53.672;10.014;2023-09-08T06:06:04;7.83;;;7.07;;
29362;SDS011;16349;53.672;10.014;2023-09-08T06:08:31;8.30;;;7.43;;
29362;SDS011;16349;53.672;10.014;2023-09-08T06:10:58;8.40;;;7.60;;
29362;SDS011;16349;53.672;10.014;2023-09-08T06:13:25;7.93;;;7.20;;
29362;SDS011;16349;53.672;10.014;2023-09-08T06:15:51;9.83;;;7.27;;
29362;SDS011;16349;53.672;10.014;2023-09-08T06:18:21;9.27;;;7.50;;
29362;SDS011;16349;53.672;10.014;2023-09-08T06:20:47;9.70;;;7.30;;
29362;SDS011;16349;53.672;10.014;2023-09-08T06:23:16;10.13;;;7.47;;
29362;SDS011;16349;53.672;10.014;2023-09-08T06:25:45;7.33;;;6.60;;
29362;SDS011;16349;53.672;10.014;2023-09-08T06:28:13;9.50;;;7.13;;
29362;SDS011;16349;53.672;10.014;2023-09-08T06:30:41;7.87;;;7.17;;
29362;SDS011;16349;53.672;10.014;2023-09-08T06:33:08;7.60;;;6.90;;
29362;SDS011;16349;53.672;10.014;2023-09-08T06:35:37;7.73;;;6.93;;
29362;SDS011;16349;53.672;10.014;2023-09-08T06:38:04;7.97;;;7.17;;
29362;SDS011;16349;53.672;10.014;2023-09-08T06:40:32;8.23;;;6.53;;
29362;SDS011;16349;53.672;10.014;2023-09-08T06:42:59;7.70;;;7.00;;
29362;SDS011;16349;53.672;10.014;2023-09-08T06:45:37;7.23;;;6.63;;
29362;SDS011;16349;53.672;10.014;2023-09-08T06:48:05;7.70;;;6.90;;
29362;SDS011;16349;53.672;10.014;2023-09-08T06:50:32;8.40;;;6.83;;
29362;SDS011;16349;53.672;10.014;2023-09-08T06:53:00;7.77;;;7.07;;
29362;SDS011;16349;53.672;10.014;2023-09-08T06:55:28;7.00;;;6.37;;
29362;SDS011;16349;53.672;10.014;2023-09-08T06:57:54;7.67;;;6.33;;
29362;SDS011;16349;53.672;10.014;2023-09-08T07:00:21;8.17;;;7.33;;
29362;SDS011;16349;53.672;10.014;2023-09-08T07:02:49;7.50;;;6.90;;
29362;SDS011;16349;53.672;10.014;2023-09-08T07:05:16;7.43;;;6.73;;
29362;SDS011;16349;53.672;10.014;2023-09-08T07:07:43;11.43;;;7.40;;
29362;SDS011;16349;53.672;10.014;2023-09-08T07:10:12;7.87;;;7.17;;
29362;SDS011;16349;53.672;10.014;2023-09-08T07:12:39;7.43;;;6.50;;
29362;SDS011;16349;53.672;10.014;2023-09-08T07:15:06;7.70;;;6.93;;
29362;SDS011;16349;53.672;10.014;2023-09-08T07:17:34;6.90;;;6.20;;
29362;SDS011;16349;53.672;10.014;2023-09-08T07:20:02;7.23;;;6.53;;
29362;SDS011;16349;53.672;10.014;2023-09-08T07:22:30;7.80;;;6.77;;
29362;SDS011;16349;53.672;10.014;2023-09-08T07:24:58;10.30;;;7.67;;
29362;SDS011;16349;53.672;10.014;2023-09-08T07:27:26;7.10;;;6.30;;
29362;SDS011;16349;53.672;10.014;2023-09-08T07:29:53;7.87;;;6.20;;
29362;SDS011;16349;53.672;10.014;2023-09-08T07:32:20;7.23;;;6.63;;
29362;SDS011;16349;53.672;10.014;2023-09-08T07:34:47;7.77;;;6.17;;
29362;SDS011;16349;53.672;10.014;2023-09-08T07:37:20;7.53;;;6.73;;
29362;SDS011;16349;53.672;10.014;2023-09-08T07:39:47;7.67;;;6.13;;
29362;SDS011;16349;53.672;10.014;2023-09-08T07:42:14;6.37;;;5.80;;
29362;SDS011;16349;53.672;10.014;2023-09-08T07:44:42;6.90;;;6.20;;
29362;SDS011;16349;53.672;10.014;2023-09-08T07:47:10;7.40;;;6.57;;
29362;SDS011;16349;53.672;10.014;2023-09-08T07:49:37;7.57;;;5.90;;
29362;SDS011;16349;53.672;10.014;2023-09-08T07:52:04;6.67;;;6.17;;
29362;SDS011;16349;53.672;10.014;2023-09-08T07:54:32;6.67;;;6.07;;
29362;SDS011;16349;53.672;10.014;2023-09-08T07:56:59;7.13;;;6.47;;
29362;SDS011;16349;53.672;10.014;2023-09-08T07:59:26;6.83;;;6.13;;
29362;SDS011;16349;53.672;10.014;2023-09-08T08:01:54;6.40;;;5.87;;
29362;SDS011;16349;53.672;10.014;2023-09-08T08:04:21;8.30;;;6.90;;
29362;SDS011;16349;53.672;10.014;2023-09-08T08:06:48;6.40;;;5.80;;
29362;SDS011;16349;53.672;10.014;2023-09-08T08:09:15;6.00;;;5.47;;
29362;SDS011;16349;53.672;10.014;2023-09-08T08:11:42;7.13;;;6.00;;
29362;SDS011;16349;53.672;10.014;2023-09-08T08:14:09;6.40;;;5.80;;
29362;SDS011;16349;53.672;10.014;2023-09-08T08:16:35;6.97;;;5.70;;
29362;SDS011;16349;53.672;10.014;2023-09-08T08:19:04;6.10;;;5.50;;
29362;SDS011;16349;53.672;10.014;2023-09-08T08:21:30;6.00;;;5.50;;
29362;SDS011;16349;53.672;10.014;2023-09-08T08:23:57;7.03;;;5.67;;
29362;SDS011;16349;53.672;10.014;2023-09-08T08:26:24;7.15;;;5.80;;
29362;SDS011;16349;53.672;10.014;2023-09-08T08:28:55;5.93;;;5.43;;
29362;SDS011;16349;53.672;10.014;2023-09-08T08:31:21;6.85;;;6.15;;
29362;SDS011;16349;53.672;10.014;2023-09-08T08:33:49;8.57;;;5.60;;
29362;SDS011;16349;53.672;10.014;2023-09-08T08:36:17;8.88;;;6.68;;
29362;SDS011;16349;53.672;10.014;2023-09-08T08:38:44;6.10;;;5.50;;
29362;SDS011;16349;53.672;10.014;2023-09-08T08:41:11;7.28;;;5.40;;
29362;SDS011;16349;53.672;10.014;2023-09-08T08:43:37;5.82;;;5.32;;
29362;SDS011;16349;53.672;10.014;2023-09-08T08:46:04;6.93;;;5.45;;
29362;SDS011;16349;53.672;10.014;2023-09-08T08:48:32;5.65;;;5.13;;
29362;SDS011;16349;53.672;10.014;2023-09-08T08:51:00;5.32;;;4.93;;
29362;SDS011;16349;53.672;10.014;2023-09-08T08:53:30;5.70;;;5.20;;
29362;SDS011;16349;53.672;10.014;2023-09-08T08:55:58;5.45;;;4.95;;
29362;SDS011;16349;53.672;10.014;2023-09-08T08:58:26;6.93;;;6.00;;
29362;SDS011;16349;53.672;10.014;2023-09-08T09:00:54;5.68;;;5.28;;
29362;SDS011;16349;53.672;10.014;2023-09-08T09:03:22;5.90;;;4.95;;
29362;SDS011;16349;53.672;10.014;2023-09-08T09:05:52;5.72;;;5.13;;
29362;SDS011;16349;53.672;10.014;2023-09-08T09:08:19;6.35;;;4.93;;
29362;SDS011;16349;53.672;10.014;2023-09-08T09:10:50;5.55;;;5.05;;
29362;SDS011;16349;53.672;10.014;2023-09-08T09:13:17;8.00;;;5.47;;
29362;SDS011;16349;53.672;10.014;2023-09-08T09:15:43;7.97;;;5.25;;
29362;SDS011;16349;53.672;10.014;2023-09-08T09:18:11;5.75;;;5.20;;
29362;SDS011;16349;53.672;10.014;2023-09-08T09:20:38;5.68;;;5.18;;
29362;SDS011;16349;53.672;10.014;2023-09-08T09:23:06;6.63;;;4.97;;
29362;SDS011;16349;53.672;10.014;2023-09-08T09:25:34;6.13;;;5.25;;
29362;SDS011;16349;53.672;10.014;2023-09-08T09:28:04;6.60;;;5.35;;
29362;SDS011;16349;53.672;10.014;2023-09-08T09:30:45;5.50;;;4.60;;
29362;SDS011;16349;53.672;10.014;2023-09-08T09:33:14;6.35;;;5.07;;
29362;SDS011;16349;53.672;10.014;2023-09-08T09:35:42;5.55;;;4.95;;
29362;SDS011;16349;53.672;10.014;2023-09-08T09:38:10;5.68;;;4.85;;
29362;SDS011;16349;53.672;10.014;2023-09-08T09:40:37;5.95;;;5.45;;
29362;SDS011;16349;53.672;10.014;2023-09-08T09:43:06;6.97;;;5.38;;
29362;SDS011;16349;53.672;10.014;2023-09-08T09:45:34;5.15;;;4.65;;
29362;SDS011;16349;53.672;10.014;2023-09-08T09:48:01;5.82;;;4.75;;
29362;SDS011;16349;53.672;10.014;2023-09-08T09:50:29;5.53;;;5.03;;
29362;SDS011;16349;53.672;10.014;2023-09-08T09:52:58;5.20;;;4.80;;
29362;SDS011;16349;53.672;10.014;2023-09-08T09:55:26;5.70;;;5.20;;
29362;SDS011;16349;53.672;10.014;2023-09-08T09:57:55;5.68;;;4.88;;
29362;SDS011;16349;53.672;10.014;2023-09-08T10:00:26;5.10;;;4.72;;
29362;SDS011;16349;53.672;10.014;2023-09-08T10:02:54;5.25;;;4.75;;
29362;SDS011;16349;53.672;10.014;2023-09-08T10:05:22;5.80;;;5.22;;
29362;SDS011;16349;53.672;10.014;2023-09-08T10:07:49;6.35;;;5.10;;
29362;SDS011;16349;53.672;10.014;2023-09-08T10:10:17;6.00;;;5.45;;
29362;SDS011;16349;53.672;10.014;2023-09-08T10:12:46;5.72;;;4.82;;
29362;SDS011;16349;53.672;10.014;2023-09-08T10:15:19;5.25;;;4.85;;
29362;SDS011;16349;53.672;10.014;2023-09-08T10:17:51;5.43;;;5.03;;
29362;SDS011;16349;53.672;10.014;2023-09-08T10:20:22;7.28;;;4.82;;
29362;SDS011;16349;53.672;10.014;2023-09-08T10:22:52;8.10;;;5.32;;
29362;SDS011;16349;53.672;10.014;2023-09-08T10:25:21;4.95;;;4.45;;
29362;SDS011;16349;53.672;10.014;2023-09-08T10:27:51;5.40;;;4.82;;
29362;SDS011;16349;53.672;10.014;2023-09-08T10:30:19;5.68;;;5.05;;
29362;SDS011;16349;53.672;10.014;2023-09-08T10:32:50;5.00;;;4.60;;
29362;SDS011;16349;53.672;10.014;2023-09-08T10:35:19;5.22;;;4.82;;
29362;SDS011;16349;53.672;10.014;2023-09-08T10:37:49;7.25;;;4.80;;
29362;SDS011;16349;53.672;10.014;2023-09-08T10:40:20;6.68;;;5.15;;
29362;SDS011;16349;53.672;10.014;2023-09-08T10:45:34;5.07;;;4.68;;
29362;SDS011;16349;53.672;10.014;2023-09-08T10:48:06;5.72;;;4.68;;
29362;SDS011;16349;53.672;10.014;2023-09-08T10:50:38;5.10;;;4.60;;
29362;SDS011;16349;53.672;10.014;2023-09-08T10:53:13;4.97;;;4.30;;
29362;SDS011;16349;53.672;10.014;2023-09-08T10:55:43;5.30;;;5.00;;
29362;SDS011;16349;53.672;10.014;2023-09-08T10:58:18;5.15;;;4.75;;
29362;SDS011;16349;53.672;10.014;2023-09-08T11:00:47;5.82;;;4.88;;
29362;SDS011;16349;53.672;10.014;2023-09-08T11:03:27;5.28;;;4.50;;
29362;SDS011;16349;53.672;10.014;2023-09-08T11:06:08;5.47;;;4.85;;
29362;SDS011;16349;53.672;10.014;2023-09-08T11:08:37;4.68;;;4.30;;
29362;SDS011;16349;53.672;10.014;2023-09-08T11:11:09;4.70;;;4.38;;
29362;SDS011;16349;53.672;10.014;2023-09-08T11:13:40;5.88;;;4.78;;
29362;SDS011;16349;53.672;10.014;2023-09-08T11:16:11;4.93;;;4.53;;
29362;SDS011;16349;53.672;10.014;2023-09-08T11:18:39;6.15;;;4.25;;
29362;SDS011;16349;53.672;10.014;2023-09-08T11:21:07;5.68;;;4.30;;
29362;SDS011;16349;53.672;10.014;2023-09-08T11:23:35;4.90;;;4.57;;
29362;SDS011;16349;53.672;10.014;2023-09-08T11:26:02;5.30;;;4.65;;
29362;SDS011;16349;53.672;10.014;2023-09-08T11:28:31;5.05;;;4.32;;
29362;SDS011;16349;53.672;10.014;2023-09-08T11:30:58;5.53;;;4.38;;
29362;SDS011;16349;53.672;10.014;2023-09-08T11:33:32;6.28;;;4.30;;
29362;SDS011;16349;53.672;10.014;2023-09-08T11:36:10;5.25;;;4.85;;
29362;SDS011;16349;53.672;10.014;2023-09-08T11:38:38;4.90;;;4.50;;
29362;SDS011;16349;53.672;10.014;2023-09-08T11:41:07;4.30;;;4.00;;
29362;SDS011;16349;53.672;10.014;2023-09-08T11:43:35;4.40;;;4.00;;
29362;SDS011;16349;53.672;10.014;2023-09-08T11:46:04;4.20;;;3.90;;
29362;SDS011;16349;53.672;10.014;2023-09-08T11:48:32;4.50;;;4.00;;
29362;SDS011;16349;53.672;10.014;2023-09-08T11:51:01;4.35;;;3.95;;
29362;SDS011;16349;53.672;10.014;2023-09-08T11:53:30;4.65;;;4.25;;
29362;SDS011;16349;53.672;10.014;2023-09-08T11:55:58;4.72;;;4.28;;
29362;SDS011;16349;53.672;10.014;2023-09-08T11:58:25;4.43;;;3.45;;
29362;SDS011;16349;53.672;10.014;2023-09-08T12:00:52;4.32;;;3.60;;
29362;SDS011;16349;53.672;10.014;2023-09-08T12:03:20;4.45;;;3.75;;
29362;SDS011;16349;53.672;10.014;2023-09-08T12:05:50;4.45;;;4.13;;
29362;SDS011;16349;53.672;10.014;2023-09-08T12:08:18;4.53;;;3.88;;
29362;SDS011;16349;53.672;10.014;2023-09-08T12:10:46;5.25;;;4.03;;
29362;SDS011;16349;53.672;10.014;2023-09-08T12:13:13;3.92;;;3.63;;
29362;SDS011;16349;53.672;10.014;2023-09-08T12:15:46;4.35;;;4.05;;
29362;SDS011;16349;53.672;10.014;2023-09-08T12:18:13;4.63;;;4.20;;
29362;SDS011;16349;53.672;10.014;2023-09-08T12:20:41;4.63;;;4.22;;
29362;SDS011;16349;53.672;10.014;2023-09-08T12:23:15;5.72;;;3.90;;
29362;SDS011;16349;53.672;10.014;2023-09-08T12:25:45;4.25;;;3.85;;
29362;SDS011;16349;53.672;10.014;2023-09-08T12:28:13;4.55;;;4.18;;
29362;SDS011;16349;53.672;10.014;2023-09-08T12:30:43;4.38;;;3.97;;
29362;SDS011;16349;53.672;10.014;2023-09-08T12:33:10;5.85;;;3.95;;
29362;SDS011;16349;53.672;10.014;2023-09-08T12:35:38;4.40;;;4.05;;
29362;SDS011;16349;53.672;10.014;2023-09-08T12:38:05;4.15;;;3.85;;
29362;SDS011;16349;53.672;10.014;2023-09-08T12:40:33;4.60;;;4.20;;
29362;SDS011;16349;53.672;10.014;2023-09-08T12:43:03;4.28;;;3.88;;
29362;SDS011;16349;53.672;10.014;2023-09-08T12:45:31;5.13;;;4.25;;
29362;SDS011;16349;53.672;10.014;2023-09-08T12:47:59;5.30;;;4.32;;
29362;SDS011;16349;53.672;10.014;2023-09-08T12:50:27;4.40;;;4.10;;
29362;SDS011;16349;53.672;10.014;2023-09-08T12:52:54;4.68;;;4.20;;
29362;SDS011;16349;53.672;10.014;2023-09-08T12:55:22;4.80;;;4.32;;
29362;SDS011;16349;53.672;10.014;2023-09-08T12:57:49;4.70;;;4.18;;
29362;SDS011;16349;53.672;10.014;2023-09-08T13:00:21;4.60;;;4.20;;
29362;SDS011;16349;53.672;10.014;2023-09-08T13:02:48;5.10;;;4.70;;
29362;SDS011;16349;53.672;10.014;2023-09-08T13:05:15;4.55;;;4.15;;
29362;SDS011;16349;53.672;10.014;2023-09-08T13:07:42;5.30;;;4.22;;
29362;SDS011;16349;53.672;10.014;2023-09-08T13:10:09;5.05;;;4.20;;
29362;SDS011;16349;53.672;10.014;2023-09-08T13:12:36;4.57;;;4.18;;
29362;SDS011;16349;53.672;10.014;2023-09-08T13:15:03;5.65;;;4.65;;
29362;SDS011;16349;53.672;10.014;2023-09-08T13:17:32;5.28;;;4.20;;
29362;SDS011;16349;53.672;10.014;2023-09-08T13:19:59;5.40;;;4.07;;
29362;SDS011;16349;53.672;10.014;2023-09-08T13:22:25;4.90;;;4.50;;
29362;SDS011;16349;53.672;10.014;2023-09-08T13:24:52;4.25;;;3.88;;
29362;SDS011;16349;53.672;10.014;2023-09-08T13:27:20;4.10;;;3.70;;
29362;SDS011;16349;53.672;10.014;2023-09-08T13:29:46;4.57;;;4.10;;
29362;SDS011;16349;53.672;10.014;2023-09-08T13:32:13;4.40;;;4.03;;
29362;SDS011;16349;53.672;10.014;2023-09-08T13:34:41;4.78;;;4.15;;
29362;SDS011;16349;53.672;10.014;2023-09-08T13:37:09;4.38;;;3.60;;
29362;SDS011;16349;53.672;10.014;2023-09-08T13:39:36;4.18;;;3.88;;
29362;SDS011;16349;53.672;10.014;2023-09-08T13:42:03;4.25;;;3.95;;
29362;SDS011;16349;53.672;10.014;2023-09-08T13:44:30;3.78;;;3.40;;
29362;SDS011;16349;53.672;10.014;2023-09-08T13:46:57;4.43;;;3.90;;
29362;SDS011;16349;53.672;10.014;2023-09-08T13:49:25;3.72;;;3.53;;
29362;SDS011;16349;53.672;10.014;2023-09-08T13:51:54;4.38;;;3.95;;
29362;SDS011;16349;53.672;10.014;2023-09-08T13:54:20;4.47;;;4.07;;
29362;SDS011;16349;53.672;10.014;2023-09-08T13:56:56;3.78;;;3.47;;
29362;SDS011;16349;53.672;10.014;2023-09-08T13:59:24;4.35;;;3.80;;
29362;SDS011;16349;53.672;10.014;2023-09-08T14:01:52;4.20;;;3.80;;
29362;SDS011;16349;53.672;10.014;2023-09-08T14:04:19;3.60;;;3.40;;
29362;SDS011;16349;53.672;10.014;2023-09-08T14:06:46;3.63;;;3.40;;
29362;SDS011;16349;53.672;10.014;2023-09-08T14:09:15;4.18;;;3.80;;
29362;SDS011;16349;53.672;10.014;2023-09-08T14:11:42;3.90;;;3.38;;
29362;SDS011;16349;53.672;10.014;2023-09-08T14:14:09;3.30;;;3.10;;
29362;SDS011;16349;53.672;10.014;2023-09-08T14:16:36;3.58;;;3.38;;
29362;SDS011;16349;53.672;10.014;2023-09-08T14:19:03;4.38;;;3.80;;
29362;SDS011;16349;53.672;10.014;2023-09-08T14:21:30;4.72;;;3.35;;
29362;SDS011;16349;53.672;10.014;2023-09-08T14:23:57;4.20;;;3.80;;
29362;SDS011;16349;53.672;10.014;2023-09-08T14:26:25;3.88;;;3.58;;
29362;SDS011;16349;53.672;10.014;2023-09-08T14:28:52;4.43;;;4.03;;
29362;SDS011;16349;53.672;10.014;2023-09-08T14:31:19;4.00;;;3.70;;
29362;SDS011;16349;53.672;10.014;2023-09-08T14:33:46;4.07;;;3.58;;
29362;SDS011;16349;53.672;10.014;2023-09-08T14:36:16;3.63;;;3.33;;
29362;SDS011;16349;53.672;10.014;2023-09-08T14:38:43;4.15;;;3.78;;
29362;SDS011;16349;53.672;10.014;2023-09-08T14:41:10;3.83;;;3.58;;